createdAt,value
2019-02-12T00:02:56.946Z,100881.18
2019-02-12T00:08:01.347Z,100897.72
2019-02-12T00:13:05.816Z,100897.78
2019-02-12T00:18:10.093Z,100884.68
2019-02-12T00:23:14.401Z,100904.06
2019-02-12T00:28:18.811Z,100904.52
2019-02-12T00:33:23.103Z,100904.52
2019-02-12T00:38:27.450Z,100903.75
2019-02-12T00:43:31.825Z,100897.98
2019-02-12T00:48:36.150Z,100894.42
2019-02-12T00:53:40.549Z,100912.40
2019-02-12T00:58:44.852Z,100912.40
2019-02-12T01:03:48.955Z,100911.22
2019-02-12T01:08:53.252Z,100911.22
2019-02-12T01:13:57.295Z,100916.69
2019-02-12T01:19:01.490Z,100938.84
2019-02-12T01:24:05.597Z,100936.50
2019-02-12T01:29:09.753Z,100945.14
2019-02-12T01:34:13.807Z,100952.66
2019-02-12T01:39:17.830Z,100955.64
2019-02-12T01:44:22.015Z,100942.44
2019-02-12T01:49:26.027Z,100954.89
2019-02-12T01:54:30.152Z,100954.89
2019-02-12T01:59:34.250Z,100970.02
2019-02-12T02:04:38.384Z,100972.48
2019-02-12T02:09:42.494Z,100970.75
2019-02-12T02:14:46.664Z,100982.61
2019-02-12T02:19:50.680Z,100987.27
2019-02-12T02:24:54.832Z,101011.95
2019-02-12T02:29:58.851Z,101017.48
2019-02-12T02:35:02.985Z,101012.73
2019-02-12T02:40:07.685Z,101004.84
2019-02-12T02:45:12.313Z,101009.80
2019-02-12T02:50:16.608Z,101016.14
2019-02-12T02:55:20.689Z,101024.38
2019-02-12T03:00:24.772Z,101024.38
2019-02-12T03:05:28.949Z,101023.75
2019-02-12T03:10:33.045Z,101021.06
2019-02-12T03:15:37.067Z,101023.81
2019-02-12T03:20:41.145Z,101023.81
2019-02-12T03:25:45.170Z,101027.16
2019-02-12T03:30:49.249Z,101027.24
2019-02-12T03:35:53.289Z,101032.28
2019-02-12T03:40:57.381Z,101032.28
2019-02-12T03:46:01.435Z,101039.63
2019-02-12T03:51:05.450Z,101049.98
2019-02-12T03:56:09.521Z,101054.58
2019-02-12T04:01:13.684Z,101066.77
2019-02-12T04:06:17.750Z,101066.77
2019-02-12T04:11:21.769Z,101057.98
2019-02-12T04:16:25.811Z,101053.08
2019-02-12T04:21:29.834Z,101048.72
2019-02-12T04:26:33.906Z,101048.80
2019-02-12T04:31:37.947Z,101045.34
2019-02-12T04:36:41.998Z,101045.34
2019-02-12T04:41:46.048Z,101047.94
2019-02-12T04:46:50.078Z,101058.44
2019-02-12T04:51:54.101Z,101060.59
2019-02-12T04:56:58.208Z,101064.29
2019-02-12T05:02:02.274Z,101060.91
2019-02-12T05:07:06.283Z,101065.41
2019-02-12T05:12:10.320Z,101065.41
2019-02-12T05:17:14.342Z,101070.53
2019-02-12T05:22:18.449Z,101070.63
2019-02-12T05:27:22.586Z,101072.41
2019-02-12T05:32:26.653Z,101072.41
2019-02-12T05:37:30.707Z,101073.45
2019-02-12T05:42:34.739Z,101073.45
2019-02-12T05:47:38.787Z,101089.26
2019-02-12T05:52:42.910Z,101089.26
2019-02-12T05:57:46.929Z,101093.73
2019-02-12T06:02:51.008Z,101097.45
2019-02-12T06:07:55.098Z,101103.86
2019-02-12T06:12:59.198Z,101125.27
2019-02-12T06:18:03.399Z,101128.91
2019-02-12T06:23:07.510Z,101141.91
2019-02-12T06:28:11.789Z,101158.98
2019-02-12T06:33:15.812Z,101161.35
2019-02-12T06:38:19.894Z,101161.35
2019-02-12T06:43:23.975Z,101162.78
2019-02-12T06:48:28.019Z,101183.05
2019-02-12T06:53:32.160Z,101186.77
2019-02-12T06:58:36.245Z,101183.27
2019-02-12T07:04:00.626Z,101183.27
2019-02-12T07:09:21.861Z,101212.89
2019-02-12T07:14:50.368Z,101212.89
2019-02-12T07:20:16.526Z,101233.50
2019-02-12T07:25:55.356Z,101233.50
2019-02-12T07:31:40.808Z,101237.63
2019-02-12T07:37:29.857Z,101248.37
2019-02-12T07:43:00.881Z,101248.84
2019-02-12T07:48:40.470Z,101251.92
2019-02-12T07:54:47.226Z,101280.86
2019-02-12T08:00:23.552Z,101291.10
2019-02-12T08:05:54.127Z,101290.57
2019-02-12T08:11:34.508Z,101313.87
2019-02-12T08:17:12.490Z,101324.77
2019-02-12T08:22:45.796Z,101303.22
2019-02-12T08:28:26.201Z,101295.36
2019-02-12T08:34:16.431Z,101304.94
2019-02-12T08:40:16.616Z,101299.89
2019-02-12T08:45:53.661Z,101299.89
2019-02-12T08:51:31.364Z,101299.23
2019-02-12T08:56:54.740Z,101308.83
2019-02-12T09:02:33.420Z,101306.34
2019-02-12T09:08:09.284Z,101321.78
2019-02-12T09:13:46.642Z,101326.89
2019-02-12T09:18:57.922Z,101326.89
2019-02-12T09:24:21.566Z,101321.93
2019-02-12T09:29:44.663Z,101346.80
2019-02-12T09:35:35.786Z,101354.16
2019-02-12T09:41:10.306Z,101352.52
2019-02-12T09:46:54.657Z,101356.74
2019-02-12T09:52:37.135Z,101385.06
2019-02-12T09:58:16.823Z,101384.59
2019-02-12T10:04:06.684Z,101386.00
2019-02-12T10:09:51.812Z,101387.46
2019-02-12T10:15:25.657Z,101389.77
2019-02-12T10:20:54.334Z,101392.45
2019-02-12T10:26:06.378Z,101400.26
2019-02-12T10:31:19.712Z,101412.95
2019-02-12T10:36:23.910Z,101416.50
2019-02-12T10:41:27.945Z,101419.88
2019-02-12T10:46:31.984Z,101433.42
2019-02-12T10:51:36.174Z,101427.47
2019-02-12T10:56:40.213Z,101420.95
2019-02-12T11:01:44.505Z,101408.34
2019-02-12T11:06:48.554Z,101402.52
2019-02-12T11:11:52.669Z,101402.61
2019-02-12T11:16:56.707Z,101402.61
2019-02-12T11:22:00.782Z,101402.13
2019-02-12T11:27:04.925Z,101411.89
2019-02-12T11:32:09.040Z,101410.94
2019-02-12T11:37:13.062Z,101417.00
2019-02-12T11:42:17.114Z,101414.86
2019-02-12T11:47:21.259Z,101414.86
2019-02-12T11:52:25.451Z,101426.87
2019-02-12T11:57:29.530Z,101435.73
2019-02-12T12:02:41.586Z,101441.72
2019-02-12T12:07:40.031Z,101458.34
2019-02-12T12:12:44.149Z,101457.17
2019-02-12T12:17:48.226Z,101459.00
2019-02-12T12:22:52.369Z,101452.09
2019-02-12T12:27:56.414Z,101452.09
2019-02-12T12:33:00.506Z,101453.52
2019-02-12T12:38:04.552Z,101449.97
2019-02-12T12:43:08.604Z,101454.97
2019-02-12T12:48:12.666Z,101447.83
2019-02-12T12:53:16.719Z,101447.83
2019-02-12T12:58:20.765Z,101457.61
2019-02-12T13:03:24.884Z,101455.43
2019-02-12T13:08:28.915Z,101458.34
2019-02-12T13:13:33.047Z,101458.34
2019-02-12T13:18:37.069Z,101464.97
2019-02-12T13:23:41.078Z,101453.13
2019-02-12T13:28:45.100Z,101473.25
2019-02-12T13:33:49.206Z,101486.11
2019-02-12T13:38:53.223Z,101486.11
2019-02-12T13:43:57.235Z,101500.36
2019-02-12T13:49:01.351Z,101492.78
2019-02-12T13:54:05.455Z,101498.93
2019-02-12T13:59:09.500Z,101498.93
2019-02-12T14:04:13.629Z,101509.04
2019-02-12T14:09:17.644Z,101509.04
2019-02-12T14:14:21.714Z,101517.31
2019-02-12T14:19:25.931Z,101528.74
2019-02-12T14:24:30.025Z,101540.02
2019-02-12T14:29:34.070Z,101542.09
2019-02-12T14:34:38.101Z,101535.02
2019-02-12T14:39:42.100Z,101535.02
2019-02-12T14:44:46.135Z,101543.89
2019-02-12T14:49:50.245Z,101551.52
2019-02-12T14:54:54.354Z,101557.24
2019-02-12T14:59:58.485Z,101562.84
2019-02-12T15:05:02.690Z,101564.89
2019-02-12T15:10:07.865Z,101573.72
2019-02-12T15:15:12.004Z,101579.98
2019-02-12T15:20:16.196Z,101582.75
2019-02-12T15:25:20.296Z,101582.75
2019-02-12T15:30:24.592Z,101579.08
2019-02-12T15:35:28.890Z,101588.77
2019-02-12T15:40:33.033Z,101588.77
2019-02-12T15:45:37.233Z,101604.86
2019-02-12T15:50:41.379Z,101608.67
2019-02-12T15:55:51.109Z,101610.83
2019-02-12T16:00:51.308Z,101618.62
2019-02-12T16:05:57.193Z,101615.14
2019-02-12T16:11:01.172Z,101617.71
2019-02-12T16:16:06.069Z,101624.72
2019-02-12T16:21:11.238Z,101625.71
2019-02-12T16:26:16.124Z,101630.02
2019-02-12T16:37:45.802Z,101639.12
2019-02-12T16:48:14.299Z,101644.83
2019-02-12T16:53:18.759Z,101652.06
2019-02-12T16:58:23.285Z,101661.39
2019-02-12T17:03:27.672Z,101661.39
2019-02-12T17:08:31.759Z,101659.44
2019-02-12T17:13:36.055Z,101667.34
2019-02-12T17:18:40.320Z,101667.34
2019-02-12T17:23:44.552Z,101684.52
2019-02-12T17:28:48.849Z,101687.92
2019-02-12T17:33:53.049Z,101699.20
2019-02-12T17:38:57.428Z,101699.20
2019-02-12T17:44:01.561Z,101691.31
2019-02-12T17:49:05.679Z,101713.00
2019-02-12T17:54:09.842Z,101701.22
2019-02-12T17:59:14.267Z,101721.26
2019-02-12T18:04:18.368Z,101719.34
2019-02-12T18:09:22.484Z,101711.56
2019-02-12T18:14:26.623Z,101708.66
2019-02-12T18:19:30.727Z,101706.82
2019-02-12T18:24:34.820Z,101706.82
2019-02-12T18:29:39.055Z,101721.66
2019-02-12T18:34:43.338Z,101742.39
2019-02-12T18:39:47.654Z,101728.73
2019-02-12T18:44:53.142Z,101728.73
2019-02-12T18:49:57.624Z,101748.58
2019-02-12T18:55:02.220Z,101758.16
2019-02-12T19:00:08.210Z,101753.97
2019-02-12T19:05:12.627Z,101752.75
2019-02-12T19:10:17.229Z,101757.50
2019-02-12T19:15:21.661Z,101761.72
2019-02-12T19:20:26.118Z,101763.67
2019-02-12T19:25:30.481Z,101767.62
2019-02-12T19:30:34.879Z,101771.98
2019-02-12T19:35:39.046Z,101762.67
2019-02-12T19:40:43.199Z,101785.55
2019-02-12T19:45:47.445Z,101785.55
2019-02-12T19:50:51.743Z,101775.29
2019-02-12T19:55:55.949Z,101761.72
2019-02-12T20:01:00.104Z,101785.43
2019-02-12T20:06:04.345Z,101779.29
2019-02-12T20:11:08.635Z,101785.55
2019-02-12T20:16:12.867Z,101788.21
2019-02-12T20:21:17.225Z,101789.64
2019-02-12T20:26:22.499Z,101789.64
2019-02-12T20:31:27.023Z,101778.98
2019-02-12T20:36:31.257Z,101784.27
2019-02-12T20:41:35.664Z,101780.38
2019-02-12T20:46:39.902Z,101787.70
2019-02-12T20:51:44.089Z,101790.01
2019-02-12T20:56:48.290Z,101787.52
2019-02-12T21:01:52.422Z,101797.58
2019-02-12T21:06:56.626Z,101808.59
2019-02-12T21:12:00.687Z,101808.28
2019-02-12T21:17:04.923Z,101808.28
2019-02-12T21:22:09.186Z,101808.95
2019-02-12T21:27:13.360Z,101808.17
2019-02-12T21:32:17.459Z,101803.17
2019-02-12T21:37:21.766Z,101794.19
2019-02-12T21:42:26.141Z,101805.63
2019-02-12T21:47:30.311Z,101805.75
2019-02-12T21:52:34.450Z,101805.75
2019-02-12T21:57:38.587Z,101812.23
2019-02-12T22:02:42.988Z,101812.23
2019-02-12T22:07:47.211Z,101808.47
2019-02-12T22:12:51.378Z,101812.13
2019-02-12T22:17:55.486Z,101813.23
2019-02-12T22:22:59.541Z,101813.23
2019-02-12T22:28:03.553Z,101810.06
2019-02-12T22:33:07.628Z,101810.06
2019-02-12T22:38:11.636Z,101812.77
2019-02-12T22:43:15.660Z,101823.61
2019-02-12T22:48:19.699Z,101818.30
2019-02-12T22:53:23.739Z,101826.37
2019-02-12T22:58:27.861Z,101814.17
2019-02-12T23:03:32.131Z,101827.84
2019-02-12T23:08:36.368Z,101808.39
2019-02-12T23:13:40.627Z,101808.39
2019-02-12T23:18:44.797Z,101820.99
2019-02-12T23:23:48.979Z,101817.08
2019-02-12T23:28:53.026Z,101817.08
2019-02-12T23:33:57.094Z,101827.56
2019-02-12T23:39:01.340Z,101829.78
2019-02-12T23:44:05.521Z,101833.50
2019-02-12T23:49:09.682Z,101838.73
2019-02-12T23:54:13.857Z,101838.73
2019-02-12T23:59:17.938Z,101828.91
